Dallas Fort Worth International Airport

KDFW | DFW

Dallas-Fort Worth , Texas , United States

Thursday, October 24th, 2019 | 00:09

Weather

KDFW 240453Z 16016G21KT 10SM FEW075 19/12 A2996 RMK AO2 SLP140 T01940117

Charts

153 Available

Gates

208 Available

Runways

7 Available

Events

No events for this airport


New event